Time;durP1;ratioP1;P1;durP2;ratioP2;P2;SDS_P1;SDS_P2;PMS_P1;PMS_P2;Temp;Humidity;BMP_temperature;BMP_pressure;BME280_temperature;BME280_humidity;BME280_pressure;Samples;Min_cycle;Max_cycle;Signal;HPM_P1;HPM_P2
2022/06/21 00:01:25;;;;;;;4.88;2.30;;;23.70;54.50;;;;;;5052594;28;20029;-79
2022/06/21 00:03:52;;;;;;;4.68;2.60;;;23.60;54.50;;;;;;5052721;28;20448;-79
2022/06/21 00:06:24;;;;;;;4.95;2.88;;;23.60;54.80;;;;;;5052412;28;20033;-79
2022/06/21 00:08:51;;;;;;;6.10;2.45;;;23.60;54.70;;;;;;5051443;28;20029;-79
2022/06/21 00:11:33;;;;;;;6.35;3.47;;;23.60;54.90;;;;;;5051253;28;20033;-79
2022/06/21 00:14:00;;;;;;;4.47;2.50;;;23.60;55.00;;;;;;5054932;28;20028;-79
2022/06/21 00:16:28;;;;;;;8.05;3.00;;;23.50;55.20;;;;;;5056121;28;20021;-80
2022/06/21 00:18:54;;;;;;;7.38;2.38;;;23.50;55.40;;;;;;5056169;28;20453;-79
2022/06/21 00:21:31;;;;;;;5.13;2.38;;;23.50;55.40;;;;;;5055809;28;20028;-80
2022/06/21 00:23:57;;;;;;;4.22;2.00;;;23.50;55.50;;;;;;5054773;28;20029;-80
2022/06/21 00:26:25;;;;;;;6.55;2.35;;;23.50;55.40;;;;;;5054352;28;20443;-79
2022/06/21 00:28:51;;;;;;;4.53;2.65;;;23.50;55.50;;;;;;5054579;28;20029;-80
2022/06/21 00:31:27;;;;;;;5.53;2.60;;;23.50;55.50;;;;;;5054506;28;20035;-80
2022/06/21 00:33:54;;;;;;;4.88;2.45;;;23.50;55.50;;;;;;5054555;28;20160;-79
2022/06/21 00:36:28;;;;;;;4.47;2.20;;;23.60;55.60;;;;;;5054541;28;20021;-79
2022/06/21 00:38:56;;;;;;;4.05;2.33;;;23.60;55.50;;;;;;5054495;28;20021;-79
2022/06/21 00:41:52;;;;;;;5.97;2.30;;;23.60;55.40;;;;;;5054386;28;20048;-80
2022/06/21 00:44:38;;;;;;;5.30;2.25;;;23.60;55.30;;;;;;5055620;28;20021;-79
2022/06/21 00:47:22;;;;;;;6.75;2.58;;;23.70;55.30;;;;;;5055897;28;20025;-79
2022/06/21 00:49:57;;;;;;;5.40;2.55;;;23.70;55.40;;;;;;5055743;28;20025;-79
2022/06/21 00:52:38;;;;;;;3.58;2.42;;;23.70;55.20;;;;;;5054339;28;20037;-79
2022/06/21 00:55:10;;;;;;;3.70;2.25;;;23.70;55.30;;;;;;5054194;28;20029;-79
2022/06/21 00:57:43;;;;;;;5.88;2.08;;;23.80;55.50;;;;;;5055422;28;20059;-80
2022/06/21 01:00:27;;;;;;;3.72;1.98;;;23.80;55.40;;;;;;5054036;28;20086;-79
2022/06/21 01:02:54;;;;;;;7.18;2.80;;;23.80;55.20;;;;;;5055142;28;20045;-79
2022/06/21 01:05:22;;;;;;;5.40;1.83;;;23.80;55.30;;;;;;5055134;28;20037;-80
2022/06/21 01:07:49;;;;;;;3.10;1.83;;;23.80;55.20;;;;;;5055004;28;20044;-79
2022/06/21 01:10:17;;;;;;;3.85;1.80;;;23.80;55.30;;;;;;5053668;28;20514;-80
2022/06/21 01:12:56;;;;;;;6.10;2.55;;;23.80;55.20;;;;;;5054762;28;20481;-78
2022/06/21 01:15:28;;;;;;;4.93;2.40;;;23.90;55.30;;;;;;5053658;28;20017;-78
2022/06/21 01:18:00;;;;;;;3.78;2.10;;;23.90;55.10;;;;;;5053657;28;20116;-78
2022/06/21 01:20:30;;;;;;;6.57;2.38;;;23.90;55.20;;;;;;5053414;28;20125;-78
2022/06/21 01:23:08;;;;;;;5.68;2.50;;;23.90;55.20;;;;;;5053203;28;20025;-77
2022/06/21 01:25:40;;;;;;;4.85;2.40;;;23.80;55.20;;;;;;5053099;28;20131;-79
2022/06/21 01:28:07;;;;;;;4.50;2.30;;;23.80;55.20;;;;;;5054402;28;20108;-78
2022/06/21 01:30:34;;;;;;;4.43;2.20;;;23.80;55.40;;;;;;5054579;28;20033;-78
2022/06/21 01:33:01;;;;;;;5.22;2.53;;;23.80;55.40;;;;;;5053395;28;20029;-79
2022/06/21 01:35:36;;;;;;;3.58;2.10;;;23.80;55.30;;;;;;5054586;28;20060;-79
2022/06/21 01:38:05;;;;;;;3.72;2.22;;;23.80;55.30;;;;;;5052895;28;20083;-79
2022/06/21 01:40:36;;;;;;;6.57;2.60;;;23.80;55.40;;;;;;5052804;28;20029;-78
2022/06/21 01:43:09;;;;;;;3.95;2.25;;;23.80;55.40;;;;;;5053476;28;20112;-78
2022/06/21 01:45:53;;;;;;;5.10;3.05;;;23.80;55.30;;;;;;5054428;28;20024;-79
2022/06/21 01:48:19;;;;;;;4.05;2.70;;;23.80;55.40;;;;;;5054209;28;20028;-79
2022/06/21 01:50:46;;;;;;;8.65;2.50;;;23.80;55.30;;;;;;5052959;28;20025;-79
2022/06/21 01:53:14;;;;;;;5.25;2.58;;;23.80;55.00;;;;;;5052971;28;20380;-79
2022/06/21 01:55:45;;;;;;;2.95;2.17;;;23.70;54.60;;;;;;5052875;28;20071;-79
2022/06/21 01:58:26;;;;;;;3.88;2.08;;;23.70;54.60;;;;;;5052758;28;20024;-79
2022/06/21 02:01:23;;;;;;;5.07;2.65;;;23.70;54.50;;;;;;5053785;28;20439;-79
2022/06/21 02:03:52;;;;;;;3.65;2.05;;;23.70;54.40;;;;;;5053776;28;20045;-79
2022/06/21 02:06:18;;;;;;;7.35;2.30;;;23.60;54.10;;;;;;5052651;28;20032;-79
2022/06/21 02:09:16;;;;;;;8.05;2.20;;;23.60;53.90;;;;;;5052684;28;20032;-79
2022/06/21 02:11:56;;;;;;;3.72;2.15;;;23.60;53.90;;;;;;5051458;28;20086;-78
2022/06/21 02:14:30;;;;;;;4.38;2.05;;;23.60;53.90;;;;;;5052646;28;20051;-79
2022/06/21 02:16:56;;;;;;;3.22;2.00;;;23.60;53.90;;;;;;5052498;28;20313;-79
2022/06/21 02:19:27;;;;;;;5.60;2.20;;;23.60;54.00;;;;;;5053750;28;20025;-78
2022/06/21 02:21:53;;;;;;;2.55;1.90;;;23.60;54.70;;;;;;5053692;28;20025;-79
2022/06/21 02:24:23;;;;;;;2.22;1.67;;;23.60;53.90;;;;;;5053656;28;20025;-79
2022/06/21 02:26:50;;;;;;;2.55;2.00;;;23.60;53.90;;;;;;5053296;28;20043;-79
2022/06/21 02:29:16;;;;;;;3.75;1.90;;;23.50;53.70;;;;;;5052380;28;20106;-79
2022/06/21 02:31:44;;;;;;;3.53;1.73;;;23.50;53.60;;;;;;5053399;28;20440;-79
2022/06/21 02:34:30;;;;;;;2.60;1.40;;;23.50;52.10;;;;;;5053169;28;20060;-79
2022/06/21 02:36:59;;;;;;;5.68;1.23;;;23.40;50.20;;;;;;5053144;28;20053;-79
2022/06/21 02:39:28;;;;;;;2.42;1.20;;;23.30;49.80;;;;;;5053620;28;20021;-78
2022/06/21 02:42:02;;;;;;;2.30;1.23;;;23.20;49.90;;;;;;5052017;28;20032;-78
2022/06/21 02:44:30;;;;;;;3.03;1.40;;;23.20;50.00;;;;;;5053261;28;20087;-79
2022/06/21 02:47:10;;;;;;;5.63;1.15;;;23.10;50.20;;;;;;5052857;28;20021;-78
2022/06/21 02:50:04;;;;;;;1.98;1.13;;;23.10;50.20;;;;;;5053168;28;20047;-78
2022/06/21 02:52:37;;;;;;;1.30;1.15;;;23.10;50.60;;;;;;5028459;28;20041;-79
2022/06/21 02:55:22;;;;;;;1.58;0.98;;;23.00;50.40;;;;;;5053270;28;20096;-79
2022/06/21 02:58:03;;;;;;;1.55;0.98;;;23.00;50.30;;;;;;5051902;28;20025;-79
2022/06/21 03:00:29;;;;;;;2.13;0.80;;;23.00;50.20;;;;;;5051880;28;20029;-79
2022/06/21 03:02:59;;;;;;;3.22;1.20;;;23.00;49.80;;;;;;5051312;28;20048;-78
2022/06/21 03:05:28;;;;;;;1.35;0.93;;;22.90;49.30;;;;;;5053120;28;20028;-78
2022/06/21 03:08:02;;;;;;;2.90;1.25;;;22.90;49.30;;;;;;5053263;28;20045;-79
2022/06/21 03:10:37;;;;;;;1.42;0.90;;;22.90;49.10;;;;;;5052982;28;20167;-79
2022/06/21 03:13:20;;;;;;;2.88;1.00;;;22.90;49.20;;;;;;5053039;28;20037;-79
2022/06/21 03:15:52;;;;;;;5.87;1.00;;;22.90;49.30;;;;;;5052990;28;20123;-79
2022/06/21 03:18:24;;;;;;;1.10;0.70;;;22.90;49.30;;;;;;5051738;28;20376;-78
2022/06/21 03:20:51;;;;;;;0.80;0.80;;;22.90;48.90;;;;;;5053019;28;20174;-78
2022/06/21 03:23:18;;;;;;;1.67;1.40;;;22.90;48.90;;;;;;5051568;28;20032;-79
2022/06/21 03:25:53;;;;;;;0.88;0.60;;;22.90;48.70;;;;;;5050672;28;20036;-78
2022/06/21 03:28:33;;;;;;;1.55;0.90;;;22.90;48.50;;;;;;5052431;28;20404;-78
2022/06/21 03:31:13;;;;;;;1.58;0.85;;;22.80;48.10;;;;;;5051330;28;20033;-78
2022/06/21 03:33:42;;;;;;;1.50;1.02;;;22.80;47.80;;;;;;5052099;28;20476;-79
2022/06/21 03:36:14;;;;;;;2.05;0.95;;;22.80;47.20;;;;;;5052758;28;20461;-78
2022/06/21 03:38:43;;;;;;;1.60;0.70;;;22.80;47.60;;;;;;5051123;28;20106;-79
2022/06/21 03:44:21;;;;;;;3.03;0.80;;;22.80;47.60;;;;;;5052457;28;20032;-78
2022/06/21 03:46:53;;;;;;;3.20;1.00;;;22.70;47.00;;;;;;5054375;28;20032;-79
2022/06/21 03:49:28;;;;;;;3.33;0.95;;;22.70;46.50;;;;;;5056606;28;20130;-78
2022/06/21 03:51:55;;;;;;;3.13;1.05;;;22.70;46.90;;;;;;5054899;28;20029;-78
2022/06/21 03:54:28;;;;;;;2.97;1.23;;;22.70;47.00;;;;;;5055927;28;20108;-78
2022/06/21 03:57:18;;;;;;;1.13;0.90;;;22.70;46.60;;;;;;5054820;28;20111;-78
2022/06/21 04:00:06;;;;;;;0.80;0.70;;;22.70;46.40;;;;;;5056054;28;20369;-78
2022/06/21 04:02:51;;;;;;;1.75;0.80;;;22.70;46.90;;;;;;5054310;28;20033;-78
2022/06/21 04:05:33;;;;;;;3.15;1.30;;;22.70;46.40;;;;;;5055918;28;20033;-78
2022/06/21 04:08:19;;;;;;;1.27;1.08;;;22.70;46.30;;;;;;5055569;28;20377;-79
2022/06/21 04:11:17;;;;;;;2.58;1.70;;;22.70;45.90;;;;;;5054442;28;20033;-78
2022/06/21 04:13:57;;;;;;;1.42;0.77;;;22.70;44.90;;;;;;5051251;28;20119;-78
2022/06/21 04:16:41;;;;;;;2.17;0.85;;;22.70;44.10;;;;;;5054436;28;20024;-78
2022/06/21 04:19:14;;;;;;;16.15;10.30;;;22.70;43.30;;;;;;5054358;28;20380;-78
2022/06/21 04:22:21;;;;;;;8.05;3.75;;;22.60;42.40;;;;;;5054213;28;20029;-78
2022/06/21 04:24:54;;;;;;;2.08;1.08;;;22.60;41.80;;;;;;5024392;28;20059;-79
2022/06/21 04:27:44;;;;;;;11.48;1.42;;;22.60;41.10;;;;;;5055186;28;20029;-78
2022/06/21 04:30:35;;;;;;;1.65;0.80;;;22.60;40.20;;;;;;5054339;28;20411;-78
2022/06/21 04:33:21;;;;;;;4.05;1.38;;;22.60;40.90;;;;;;5055630;28;20025;-78
2022/06/21 04:36:19;;;;;;;3.28;0.60;;;22.70;41.40;;;;;;5055395;28;20116;-78
2022/06/21 04:38:54;;;;;;;8.75;1.45;;;22.70;41.20;;;;;;5032122;28;20397;-78
2022/06/21 04:41:34;;;;;;;2.53;0.73;;;22.80;41.60;;;;;;5055324;28;20029;-78
2022/06/21 04:44:18;;;;;;;3.10;0.85;;;22.80;40.60;;;;;;5053827;28;20025;-79
2022/06/21 04:46:52;;;;;;;1.70;0.90;;;22.90;40.10;;;;;;5055192;28;20029;-78
2022/06/21 04:49:34;;;;;;;1.25;0.77;;;22.90;39.70;;;;;;5054835;28;20028;-77
2022/06/21 04:52:27;;;;;;;1.25;0.90;;;22.90;39.50;;;;;;5054644;28;20056;-80
2022/06/21 04:54:52;;;;;;;1.85;1.10;;;22.90;38.50;;;;;;5054358;28;20041;-78
2022/06/21 04:57:22;;;;;;;2.35;0.95;;;23.00;38.40;;;;;;5054404;28;20105;-78
2022/06/21 05:00:10;;;;;;;3.80;0.90;;;23.00;38.60;;;;;;5054635;28;20412;-79
2022/06/21 05:02:59;;;;;;;3.65;1.15;;;23.00;37.40;;;;;;5053240;28;20467;-79
2022/06/21 05:05:29;;;;;;;4.82;1.60;;;23.00;37.10;;;;;;5056399;28;20029;-78
2022/06/21 05:08:28;;;;;;;1.80;0.77;;;23.00;36.50;;;;;;5073313;28;20066;-78
2022/06/21 05:10:58;;;;;;;2.00;0.95;;;23.00;35.70;;;;;;5060964;28;20044;-78
2022/06/21 05:13:53;;;;;;;5.05;1.05;;;23.00;36.00;;;;;;5073598;28;20039;-78
2022/06/21 05:16:29;;;;;;;;;;;23.00;36.60;;;;;;5071202;28;20039;-78
2022/06/21 05:19:26;;;;;;;4.13;1.27;;;23.10;38.70;;;;;;5062934;28;19909;-78
2022/06/21 05:21:58;;;;;;;2.95;1.10;;;23.10;36.80;;;;;;5028702;28;20037;-78
2022/06/21 05:24:24;;;;;;;1.92;0.90;;;23.10;35.30;;;;;;5055174;28;20083;-78
2022/06/21 05:27:24;;;;;;;2.42;1.30;;;23.10;35.10;;;;;;5052453;28;20033;-78
2022/06/21 05:30:06;;;;;;;2.95;1.20;;;23.10;35.40;;;;;;4983287;28;20093;-77
2022/06/21 05:32:38;;;;;;;5.10;1.30;;;23.10;35.90;;;;;;5054360;28;20473;-77
2022/06/21 05:35:20;;;;;;;2.50;1.10;;;23.20;36.30;;;;;;5053262;28;20037;-79
2022/06/21 05:37:50;;;;;;;4.47;1.05;;;23.20;36.70;;;;;;5054305;28;20021;-78
2022/06/21 05:40:30;;;;;;;2.58;1.10;;;23.40;37.10;;;;;;5053053;28;20059;-78
2022/06/21 05:42:56;;;;;;;2.63;1.00;;;23.40;36.70;;;;;;5043677;28;20025;-77
2022/06/21 05:45:28;;;;;;;7.43;1.40;;;23.50;36.40;;;;;;5033024;28;20029;-79
2022/06/21 05:48:01;;;;;;;1.73;1.10;;;23.60;36.10;;;;;;5032931;28;20029;-78
2022/06/21 05:50:30;;;;;;;2.10;1.13;;;23.80;35.90;;;;;;5047757;28;20087;-78
2022/06/21 05:53:08;;;;;;;2.42;1.13;;;23.90;35.70;;;;;;5052693;28;20427;-78
2022/06/21 05:55:39;;;;;;;3.60;1.50;;;24.00;35.60;;;;;;5052757;28;20024;-78
2022/06/21 05:58:16;;;;;;;2.78;1.10;;;24.10;35.10;;;;;;5052636;28;20033;-79
2022/06/21 06:01:17;;;;;;;1.67;1.00;;;24.20;34.80;;;;;;5053483;28;20029;-78
2022/06/21 06:03:54;;;;;;;2.03;1.08;;;24.30;35.50;;;;;;5001585;28;20057;-77
2022/06/21 06:06:21;;;;;;;1.38;1.00;;;24.50;34.40;;;;;;5053943;28;20021;-78
2022/06/21 06:08:52;;;;;;;7.90;1.33;;;24.60;34.10;;;;;;5052438;28;20463;-78
2022/06/21 06:11:57;;;;;;;3.53;0.90;;;24.70;34.10;;;;;;5051259;28;20089;-78
2022/06/21 06:14:19;;;;;;;3.38;1.23;;;24.70;33.20;;;;;;5053471;28;20095;-78
2022/06/21 06:16:48;;;;;;;3.65;1.13;;;24.80;33.20;;;;;;5053899;28;20025;-78
2022/06/21 06:19:21;;;;;;;1.75;1.00;;;24.70;32.90;;;;;;5052263;28;20495;-78
2022/06/21 06:21:55;;;;;;;2.25;0.80;;;24.70;32.80;;;;;;5052213;28;20037;-78
2022/06/21 06:24:34;;;;;;;2.72;1.15;;;24.60;32.70;;;;;;5053888;28;20021;-78
2022/06/21 06:27:05;;;;;;;4.70;1.05;;;24.50;32.30;;;;;;5052186;28;20021;-77
2022/06/21 06:29:37;;;;;;;6.43;1.20;;;24.50;32.90;;;;;;5052791;28;20469;-78
2022/06/21 06:32:22;;;;;;;2.70;1.20;;;24.40;33.60;;;;;;5053378;28;20108;-77
2022/06/21 06:34:52;;;;;;;2.42;0.98;;;24.30;34.10;;;;;;5052168;28;20048;-78
2022/06/21 06:37:31;;;;;;;4.53;1.08;;;24.20;34.20;;;;;;5052529;28;20094;-78
2022/06/21 06:39:59;;;;;;;5.00;1.38;;;24.20;34.70;;;;;;5053479;28;20032;-77
2022/06/21 06:42:27;;;;;;;2.70;1.25;;;24.10;35.30;;;;;;5035637;28;20029;-78
2022/06/21 06:45:01;;;;;;;8.05;1.77;;;24.00;35.80;;;;;;5033467;28;20381;-78
2022/06/21 06:47:39;;;;;;;1.77;1.40;;;23.90;36.60;;;;;;5033312;28;20091;-78
2022/06/21 06:50:27;;;;;;;3.30;1.80;;;23.90;36.80;;;;;;5032223;28;20284;-78
2022/06/21 06:53:19;;;;;;;5.75;1.90;;;23.80;37.20;;;;;;5035160;28;20029;-78
2022/06/21 06:55:48;;;;;;;4.43;2.22;;;23.80;37.50;;;;;;5052445;28;20493;-78
2022/06/21 06:58:29;;;;;;;6.60;2.38;;;23.70;37.30;;;;;;5052002;28;20064;-78
2022/06/21 07:01:01;;;;;;;4.03;2.22;;;23.70;37.50;;;;;;5051689;28;20083;-78
2022/06/21 07:03:36;;;;;;;5.40;1.75;;;23.70;37.80;;;;;;5052757;28;20052;-78
2022/06/21 07:06:17;;;;;;;5.53;1.83;;;23.70;38.00;;;;;;5052416;28;20033;-78
2022/06/21 07:09:13;;;;;;;8.52;2.70;;;23.60;37.60;;;;;;5051997;28;20059;-77
2022/06/21 07:11:39;;;;;;;6.30;2.03;;;23.60;38.10;;;;;;5051865;28;20029;-79
2022/06/21 07:14:18;;;;;;;5.57;2.38;;;23.60;38.40;;;;;;5051047;28;20037;-78
2022/06/21 07:16:44;;;;;;;3.38;2.25;;;23.50;39.20;;;;;;5053020;28;20400;-78
2022/06/21 07:19:11;;;;;;;4.70;1.85;;;23.50;38.90;;;;;;5051560;28;20025;-78
2022/06/21 07:21:40;;;;;;;5.40;2.28;;;23.50;39.10;;;;;;5053637;28;20029;-80
2022/06/21 07:24:14;;;;;;;2.95;1.60;;;23.50;39.50;;;;;;5055570;28;20033;-79
2022/06/21 07:26:51;;;;;;;4.55;1.85;;;23.50;39.30;;;;;;5055917;28;20028;-78
2022/06/21 07:29:29;;;;;;;3.58;1.65;;;23.50;39.40;;;;;;5055660;28;20090;-78
2022/06/21 07:32:01;;;;;;;5.15;1.98;;;23.60;39.20;;;;;;5055562;28;20033;-78
2022/06/21 07:34:42;;;;;;;3.13;1.67;;;23.50;39.40;;;;;;5054986;28;20048;-78
2022/06/21 07:37:28;;;;;;;4.72;1.80;;;23.60;39.30;;;;;;5056777;28;20032;-78
2022/06/21 07:40:22;;;;;;;2.75;1.80;;;23.50;38.90;;;;;;5055608;28;20384;-80
2022/06/21 07:43:09;;;;;;;7.30;2.22;;;23.60;39.10;;;;;;5055695;28;20028;-78
2022/06/21 07:45:50;;;;;;;5.10;2.17;;;23.60;38.90;;;;;;5055520;28;20029;-78
2022/06/21 07:48:27;;;;;;;2.58;1.40;;;23.60;38.60;;;;;;5055266;28;20025;-80
2022/06/21 07:50:57;;;;;;;7.28;1.70;;;23.60;38.70;;;;;;5055304;28;20029;-79
2022/06/21 07:53:27;;;;;;;4.53;2.20;;;23.60;39.10;;;;;;5055688;28;20033;-78
2022/06/21 07:56:01;;;;;;;3.20;2.00;;;23.60;37.80;;;;;;5055388;28;20427;-78
2022/06/21 07:58:40;;;;;;;5.05;2.22;;;23.70;37.90;;;;;;5055262;28;20083;-78
2022/06/21 08:07:28;;;;;;;1.75;1.23;;;23.70;36.90;;;;;;5056334;28;20044;-77
2022/06/21 08:09:58;;;;;;;3.33;1.48;;;23.70;36.20;;;;;;5054884;28;20036;-78
2022/06/21 08:12:24;;;;;;;3.40;1.30;;;23.70;36.70;;;;;;5071635;28;20414;-78
2022/06/21 08:14:50;;;;;;;5.15;1.50;;;23.70;36.60;;;;;;5055392;28;20478;-78
2022/06/21 08:17:31;;;;;;;5.78;1.20;;;23.80;37.60;;;;;;5056332;28;20029;-78
2022/06/21 08:20:03;;;;;;;2.40;1.35;;;23.80;37.20;;;;;;5053338;28;20477;-78
2022/06/21 08:22:33;;;;;;;1.90;1.27;;;23.80;37.50;;;;;;5054839;28;20025;-78
2022/06/21 08:25:24;;;;;;;1.95;1.13;;;23.80;37.80;;;;;;5054661;28;20441;-78
2022/06/21 08:27:58;;;;;;;3.22;1.00;;;23.80;37.00;;;;;;5054652;28;20366;-78
2022/06/21 08:30:34;;;;;;;6.32;1.10;;;23.90;37.10;;;;;;5054354;28;20029;-78
2022/06/21 08:33:09;;;;;;;3.20;1.17;;;23.90;37.50;;;;;;5053294;28;20033;-78
2022/06/21 08:35:42;;;;;;;2.13;1.10;;;23.90;37.60;;;;;;5054458;28;20036;-77
2022/06/21 08:38:46;;;;;;;2.63;1.10;;;23.90;37.40;;;;;;5054201;28;20017;-77
2022/06/21 08:41:56;;;;;;;3.13;1.30;;;24.00;37.40;;;;;;5041450;28;20131;-78
2022/06/21 08:48:19;;;;;;;7.22;1.30;;;24.10;36.90;;;;;;5035956;28;20036;-77
2022/06/21 08:51:04;;;;;;;2.92;1.27;;;24.10;37.20;;;;;;5034353;28;20496;-78
2022/06/21 08:53:39;;;;;;;2.58;0.90;;;24.10;36.50;;;;;;5040346;28;20033;-78
2022/06/21 08:56:11;;;;;;;1.70;0.82;;;24.20;35.40;;;;;;5055171;28;20036;-79
2022/06/21 08:58:45;;;;;;;2.35;1.13;;;24.30;35.70;;;;;;5054211;28;20029;-78
2022/06/21 09:01:20;;;;;;;3.20;0.90;;;24.20;35.40;;;;;;5054042;28;20040;-78
2022/06/21 09:04:02;;;;;;;2.60;1.10;;;24.30;36.00;;;;;;5053922;28;20110;-78
2022/06/21 09:07:09;;;;;;;2.40;1.00;;;24.40;35.70;;;;;;5054154;28;20025;-78
2022/06/21 09:10:07;;;;;;;1.55;1.10;;;24.50;36.00;;;;;;5053695;28;20036;-77
2022/06/21 09:13:06;;;;;;;1.70;0.90;;;24.60;36.00;;;;;;4993609;28;20046;-78
2022/06/21 09:15:36;;;;;;;4.18;1.42;;;24.70;35.10;;;;;;4976312;28;20026;-78
2022/06/21 09:18:30;;;;;;;2.38;0.90;;;24.70;35.40;;;;;;4975914;28;20442;-78
2022/06/21 09:21:20;;;;;;;2.42;1.17;;;24.70;35.00;;;;;;4984711;28;20094;-78
2022/06/21 09:23:57;;;;;;;5.82;1.10;;;24.70;34.00;;;;;;4979876;28;20057;-77
2022/06/21 09:26:46;;;;;;;1.30;0.88;;;24.80;31.30;;;;;;4973759;28;20031;-77
2022/06/21 09:29:40;;;;;;;1.75;0.90;;;24.80;32.90;;;;;;4957596;28;20041;-77
2022/06/21 09:32:10;;;;;;;;;;;24.90;33.20;;;;;;4976702;28;20346;-78
2022/06/21 09:35:00;;;;;;;3.22;1.00;;;25.00;33.80;;;;;;4976786;28;19910;-78
2022/06/21 09:37:44;;;;;;;1.45;0.80;;;25.10;31.60;;;;;;4988699;28;20050;-77
2022/06/21 09:40:57;;;;;;;0.88;0.70;;;25.20;30.90;;;;;;4976995;28;20039;-77
2022/06/21 09:43:41;;;;;;;2.85;0.88;;;25.20;30.50;;;;;;4915042;28;20552;-77
2022/06/21 09:46:46;;;;;;;2.43;0.80;;;25.30;30.30;;;;;;4992900;28;20540;-78
2022/06/21 09:49:23;;;;;;;2.33;0.80;;;25.30;30.30;;;;;;5023075;28;20401;-78
2022/06/21 09:52:12;;;;;;;3.55;1.02;;;25.40;30.40;;;;;;5054330;28;20090;-77
2022/06/21 09:54:41;;;;;;;5.05;1.00;;;25.40;30.70;;;;;;5048048;28;20116;-77
2022/06/21 09:57:41;;;;;;;5.70;0.90;;;25.50;30.00;;;;;;5034798;28;20036;-78
2022/06/21 10:00:34;;;;;;;6.10;0.70;;;25.50;30.10;;;;;;5042378;28;20068;-78
2022/06/21 10:03:15;;;;;;;0.80;0.80;;;25.50;30.30;;;;;;5039095;28;20053;-78
2022/06/21 10:06:03;;;;;;;1.00;0.85;;;25.50;30.80;;;;;;5041048;28;20357;-77
2022/06/21 10:09:02;;;;;;;1.50;1.02;;;25.50;30.40;;;;;;5052752;28;20495;-77
2022/06/21 10:12:04;;;;;;;1.65;0.90;;;25.60;30.60;;;;;;5052762;28;20079;-77
2022/06/21 10:15:02;;;;;;;3.25;1.35;;;25.50;30.60;;;;;;5053831;28;20035;-79
2022/06/21 10:17:45;;;;;;;4.35;1.20;;;25.60;30.50;;;;;;5042346;28;20364;-77
2022/06/21 10:20:22;;;;;;;2.58;1.30;;;25.60;30.50;;;;;;5033621;28;20511;-77
2022/06/21 10:23:07;;;;;;;2.15;0.93;;;25.60;31.20;;;;;;5049768;28;20147;-77
2022/06/21 10:25:56;;;;;;;3.03;1.38;;;25.60;30.70;;;;;;5046164;28;20532;-78
2022/06/21 10:28:34;;;;;;;1.35;1.10;;;25.60;30.40;;;;;;5045346;28;20032;-78
2022/06/21 10:31:18;;;;;;;0.77;0.73;;;25.60;30.10;;;;;;5043329;28;20167;-78
2022/06/21 10:34:16;;;;;;;1.45;0.80;;;25.70;30.60;;;;;;5053262;28;20109;-78
2022/06/21 10:36:44;;;;;;;1.70;1.00;;;25.70;30.90;;;;;;5053460;28;20029;-78
2022/06/21 10:39:35;;;;;;;2.90;1.10;;;25.80;30.50;;;;;;5052041;28;20116;-79
2022/06/21 10:42:46;;;;;;;2.28;1.25;;;25.80;31.20;;;;;;5051793;28;20439;-77
2022/06/21 10:45:53;;;;;;;3.15;1.15;;;25.90;31.10;;;;;;5053793;28;20056;-78
2022/06/21 10:48:56;;;;;;;1.70;0.98;;;26.00;31.00;;;;;;4975462;28;20514;-78
2022/06/21 10:51:30;;;;;;;3.20;0.80;;;26.00;30.10;;;;;;5053228;28;20470;-78
2022/06/21 10:54:42;;;;;;;4.63;1.35;;;26.00;30.40;;;;;;5050470;28;20590;-78
2022/06/21 10:57:36;;;;;;;2.92;1.08;;;26.10;30.80;;;;;;5033002;28;20049;-78
2022/06/21 11:03:16;;;;;;;3.80;1.45;;;26.20;30.90;;;;;;5036969;28;20474;-76
2022/06/21 11:06:09;;;;;;;4.72;1.10;;;26.20;31.20;;;;;;5033535;28;20034;-78
2022/06/21 11:08:49;;;;;;;2.83;1.08;;;26.20;31.00;;;;;;5032722;28;20029;-77
2022/06/21 11:11:39;;;;;;;4.38;0.93;;;26.30;31.50;;;;;;5037802;28;20025;-77
2022/06/21 11:14:33;;;;;;;1.85;1.27;;;26.30;31.30;;;;;;5052712;28;20040;-79
2022/06/21 11:17:12;;;;;;;1.10;0.90;;;26.40;31.40;;;;;;5053210;28;20029;-78
2022/06/21 11:20:29;;;;;;;2.58;1.27;;;26.50;31.20;;;;;;5052234;28;20063;-76
2022/06/21 11:23:16;;;;;;;1.55;0.95;;;26.50;31.00;;;;;;5047006;28;20044;-77
2022/06/21 11:26:01;;;;;;;3.47;1.25;;;26.50;30.40;;;;;;5052791;28;20036;-79
2022/06/21 11:28:57;;;;;;;3.58;0.98;;;26.50;30.60;;;;;;5051766;28;20114;-78
2022/06/21 11:31:41;;;;;;;1.67;0.90;;;26.60;30.50;;;;;;5051673;28;20440;-80
2022/06/21 11:34:26;;;;;;;2.95;1.10;;;26.60;31.10;;;;;;5050260;28;20484;-78
2022/06/21 11:37:24;;;;;;;2.13;1.05;;;26.70;30.30;;;;;;5052968;28;20029;-77
2022/06/21 11:40:24;;;;;;;5.60;1.63;;;26.80;30.40;;;;;;4991108;28;20035;-78
2022/06/21 11:42:52;;;;;;;4.05;1.00;;;26.90;30.40;;;;;;4977352;28;20034;-78
2022/06/21 11:45:30;;;;;;;1.90;1.00;;;26.90;29.70;;;;;;5051624;28;20032;-78
2022/06/21 11:48:13;;;;;;;2.58;1.02;;;26.90;29.80;;;;;;5051526;28;20036;-79
2022/06/21 11:51:34;;;;;;;1.55;0.90;;;27.00;29.70;;;;;;5052475;28;20025;-78
2022/06/21 11:54:11;;;;;;;2.22;0.82;;;27.10;29.70;;;;;;4990456;28;20070;-79
2022/06/21 11:57:03;;;;;;;1.67;0.90;;;27.30;29.90;;;;;;5051458;28;20083;-78
2022/06/21 11:59:45;;;;;;;2.25;0.73;;;27.40;28.90;;;;;;5051533;28;20393;-78
2022/06/21 12:02:10;;;;;;;2.47;1.20;;;27.50;29.20;;;;;;5051316;28;20082;-80
2022/06/21 12:05:09;;;;;;;1.35;1.00;;;27.60;28.30;;;;;;5051024;28;20084;-78
2022/06/21 12:07:49;;;;;;;2.85;0.90;;;27.60;28.40;;;;;;4990748;28;20088;-79
2022/06/21 12:10:32;;;;;;;2.03;0.90;;;27.70;28.30;;;;;;4994785;28;20038;-78
2022/06/21 12:13:13;;;;;;;11.85;1.40;;;27.80;28.60;;;;;;4978303;28;20398;-78
2022/06/21 12:15:48;;;;;;;2.95;1.20;;;27.90;28.40;;;;;;4978209;28;20193;-78
2022/06/21 12:18:18;;;;;;;2.42;0.98;;;28.00;27.80;;;;;;4978126;28;20398;-79
2022/06/21 12:20:49;;;;;;;6.97;4.25;;;28.00;27.90;;;;;;4978164;28;20026;-77
2022/06/21 12:23:27;;;;;;;10.20;8.10;;;28.10;27.80;;;;;;4978215;28;20555;-78
2022/06/21 12:25:53;;;;;;;6.00;2.47;;;28.20;27.10;;;;;;4977966;28;20371;-79
2022/06/21 12:28:23;;;;;;;4.18;1.00;;;28.30;27.80;;;;;;4978062;28;20030;-78
2022/06/21 12:30:50;;;;;;;2.50;1.13;;;28.40;27.70;;;;;;4994225;28;20042;-79
2022/06/21 12:33:19;;;;;;;1.92;0.90;;;28.50;27.70;;;;;;4994046;28;20037;-78
2022/06/21 12:35:51;;;;;;;2.03;1.10;;;28.50;27.30;;;;;;4977775;28;20597;-79
2022/06/21 12:38:32;;;;;;;2.00;0.90;;;28.50;27.30;;;;;;4994061;28;20050;-79
2022/06/21 12:41:06;;;;;;;3.65;0.98;;;28.50;27.70;;;;;;4977601;28;20031;-79
2022/06/21 12:44:04;;;;;;;2.30;1.30;;;28.60;27.00;;;;;;5000772;28;20069;-78
2022/06/21 12:46:48;;;;;;;2.58;0.80;;;28.50;27.20;;;;;;5002454;28;20461;-78
2022/06/21 12:49:32;;;;;;;2.53;1.08;;;28.60;26.40;;;;;;5035637;28;20021;-78
2022/06/21 12:52:07;;;;;;;2.60;0.73;;;28.60;27.20;;;;;;5033964;28;20381;-78
2022/06/21 12:54:48;;;;;;;2.75;0.93;;;28.60;26.40;;;;;;5034424;28;20299;-78
2022/06/21 12:57:35;;;;;;;3.33;1.08;;;28.60;26.50;;;;;;5035501;28;20025;-78
2022/06/21 13:00:01;;;;;;;1.85;1.20;;;28.70;26.60;;;;;;5034087;28;20026;-79
2022/06/21 13:02:39;;;;;;;2.42;1.00;;;28.70;26.50;;;;;;5035457;28;20044;-77
2022/06/21 13:05:19;;;;;;;1.05;0.70;;;28.80;26.60;;;;;;5034139;28;20437;-78
2022/06/21 13:08:19;;;;;;;1.25;0.90;;;28.90;27.60;;;;;;5035677;28;20079;-79
2022/06/21 13:11:02;;;;;;;2.28;1.00;;;29.10;27.20;;;;;;5033950;28;20025;-80
2022/06/21 13:13:31;;;;;;;2.92;1.27;;;29.30;26.40;;;;;;5035351;28;20036;-78
2022/06/21 13:16:05;;;;;;;1.35;1.00;;;29.40;26.20;;;;;;5034953;28;20473;-78
2022/06/21 13:18:58;;;;;;;3.13;1.13;;;29.50;25.90;;;;;;5032963;28;20040;-79
2022/06/21 13:21:52;;;;;;;1.50;0.77;;;29.70;25.80;;;;;;5033668;28;20116;-78
2022/06/21 13:24:40;;;;;;;0.77;0.77;;;29.90;25.80;;;;;;5034677;28;20032;-79
2022/06/21 13:27:42;;;;;;;3.38;0.77;;;30.20;26.10;;;;;;5035079;28;20095;-79
2022/06/21 13:30:30;;;;;;;0.93;0.70;;;30.60;25.70;;;;;;5034433;28;20060;-79
2022/06/21 13:33:13;;;;;;;2.35;0.90;;;31.10;25.30;;;;;;5034736;28;20056;-80
2022/06/21 13:35:58;;;;;;;2.80;1.00;;;31.60;24.80;;;;;;5050093;28;20029;-79
2022/06/21 13:38:45;;;;;;;3.35;0.82;;;32.10;24.70;;;;;;5033749;28;20032;-77
2022/06/21 13:44:26;;;;;;;1.17;1.00;;;33.10;23.20;;;;;;5034699;28;20137;-78
2022/06/21 13:47:42;;;;;;;1.30;0.80;;;33.80;23.20;;;;;;5049996;28;20056;-78
2022/06/21 13:50:19;;;;;;;4.78;1.25;;;34.40;23.60;;;;;;5044477;28;20140;-80
2022/06/21 13:52:52;;;;;;;1.38;0.77;;;35.00;21.90;;;;;;5049914;28;20037;-79
2022/06/21 13:55:40;;;;;;;1.10;0.80;;;35.50;21.30;;;;;;5034235;28;20533;-79
2022/06/21 13:58:38;;;;;;;1.63;1.08;;;36.20;21.40;;;;;;5049750;28;20484;-78
2022/06/21 14:01:31;;;;;;;0.93;0.85;;;36.90;21.40;;;;;;5049696;28;20033;-78
2022/06/21 14:04:33;;;;;;;2.10;0.95;;;37.80;20.90;;;;;;5033791;28;20532;-78
2022/06/21 14:07:08;;;;;;;1.48;0.90;;;38.40;20.20;;;;;;5034206;28;20025;-78
2022/06/21 14:09:54;;;;;;;1.20;0.77;;;39.20;18.70;;;;;;5032854;28;20021;-78
2022/06/21 14:12:28;;;;;;;1.80;1.00;;;39.80;18.20;;;;;;5049468;28;20116;-78